Time;durP1;ratioP1;P1;durP2;ratioP2;P2;SDS_P1;SDS_P2;PMS_P1;PMS_P2;Temp;Humidity;BMP_temperature;BMP_pressure;BME280_temperature;BME280_humidity;BME280_pressure;Samples;Min_cycle;Max_cycle;Signal;HPM_P1;HPM_P2
2023/04/29 00:01:11;;;;;;;51.15;40.40;;;10.10;99.90;;;;;;6159598;23;20005;-78
2023/04/29 00:03:36;;;;;;;54.50;40.33;;;10.10;99.90;;;;;;6159634;23;20020;-78
2023/04/29 00:06:02;;;;;;;55.13;40.35;;;10.20;99.90;;;;;;6134673;23;20010;-78
2023/04/29 00:08:28;;;;;;;55.70;40.50;;;10.20;99.90;;;;;;6160396;23;20017;-78
2023/04/29 00:10:54;;;;;;;47.88;38.13;;;10.10;99.90;;;;;;6134998;23;20013;-78
2023/04/29 00:13:20;;;;;;;53.88;39.13;;;10.20;99.90;;;;;;6134830;23;20052;-78
2023/04/29 00:15:45;;;;;;;53.50;39.67;;;10.20;99.90;;;;;;6134753;23;20017;-78
2023/04/29 00:18:12;;;;;;;57.28;40.95;;;10.20;99.90;;;;;;6159361;23;20338;-78
2023/04/29 00:20:38;;;;;;;70.47;43.15;;;10.20;99.90;;;;;;6168209;23;20017;-77
2023/04/29 00:23:04;;;;;;;64.60;42.22;;;10.10;99.90;;;;;;6185930;23;20017;-77
2023/04/29 00:25:30;;;;;;;67.95;44.83;;;10.10;99.90;;;;;;6184545;23;20013;-78
2023/04/29 00:28:00;;;;;;;65.97;44.97;;;10.10;99.90;;;;;;6159151;23;20036;-78
2023/04/29 00:30:29;;;;;;;64.93;42.97;;;10.20;99.90;;;;;;6183902;23;20005;-78
2023/04/29 00:32:55;;;;;;;67.05;45.08;;;10.10;99.90;;;;;;6185887;23;20036;-78
2023/04/29 00:35:21;;;;;;;63.45;42.50;;;10.20;99.90;;;;;;6183930;23;20017;-78
2023/04/29 00:37:46;;;;;;;61.03;43.67;;;10.20;99.90;;;;;;6183930;23;20016;-78
2023/04/29 00:40:15;;;;;;;57.40;40.42;;;10.20;99.90;;;;;;6184351;23;20013;-78
2023/04/29 00:42:41;;;;;;;50.47;37.63;;;10.20;99.90;;;;;;6183835;23;20092;-78
2023/04/29 00:45:08;;;;;;;51.28;36.97;;;10.20;99.90;;;;;;6158964;23;20045;-78
2023/04/29 00:47:33;;;;;;;48.25;37.58;;;10.10;99.90;;;;;;6160449;23;20470;-78
2023/04/29 00:49:59;;;;;;;45.58;35.38;;;10.10;99.90;;;;;;6160976;23;20024;-78
2023/04/29 00:52:29;;;;;;;48.95;36.58;;;10.10;99.90;;;;;;6185984;23;20028;-78
2023/04/29 00:54:55;;;;;;;46.88;36.20;;;10.20;99.90;;;;;;6160944;23;20469;-78
2023/04/29 00:57:21;;;;;;;44.60;35.05;;;10.10;99.90;;;;;;6187370;23;20048;-78
2023/04/29 00:59:48;;;;;;;45.33;35.10;;;10.20;99.90;;;;;;6187772;23;20338;-77
2023/04/29 01:02:14;;;;;;;49.03;36.05;;;10.10;99.90;;;;;;6185773;23;20068;-78
2023/04/29 01:04:40;;;;;;;47.85;35.35;;;10.00;99.90;;;;;;6185738;23;20009;-78
2023/04/29 01:07:14;;;;;;;41.45;33.60;;;10.20;99.90;;;;;;6185810;23;20401;-78
2023/04/29 01:09:51;;;;;;;41.17;32.28;;;10.20;99.90;;;;;;6185718;23;20017;-78
2023/04/29 01:12:40;;;;;;;37.47;29.45;;;10.30;99.90;;;;;;6185741;23;20013;-78
2023/04/29 01:15:19;;;;;;;42.95;30.83;;;10.30;99.90;;;;;;6141487;23;20023;-78
2023/04/29 01:18:00;;;;;;;40.17;30.10;;;10.10;99.90;;;;;;6162231;23;20021;-77
2023/04/29 01:20:27;;;;;;;38.10;28.10;;;10.20;99.90;;;;;;6185543;23;20048;-78
2023/04/29 01:22:52;;;;;;;41.92;31.55;;;10.20;99.90;;;;;;6187408;23;20021;-78
2023/04/29 01:25:18;;;;;;;43.50;31.50;;;10.10;99.90;;;;;;6160658;23;20489;-78
2023/04/29 01:27:59;;;;;;;36.17;28.35;;;10.10;99.90;;;;;;6185809;23;20013;-78
2023/04/29 01:30:59;;;;;;;42.00;30.20;;;10.10;99.90;;;;;;6185456;23;20013;-78
2023/04/29 01:33:56;;;;;;;37.35;28.63;;;10.10;99.90;;;;;;6160628;23;20097;-78
2023/04/29 01:36:50;;;;;;;35.97;27.63;;;10.00;99.90;;;;;;6185481;23;20013;-78
2023/04/29 01:39:30;;;;;;;35.50;27.17;;;9.90;99.90;;;;;;6185482;23;20013;-78
2023/04/29 01:42:01;;;;;;;38.00;29.08;;;10.00;99.90;;;;;;6160451;23;20021;-78
2023/04/29 01:44:30;;;;;;;41.58;29.05;;;10.00;99.90;;;;;;6187395;23;20016;-78
2023/04/29 01:46:56;;;;;;;38.08;29.48;;;10.00;99.90;;;;;;6187379;23;20013;-78
2023/04/29 01:49:28;;;;;;;37.53;28.92;;;9.90;99.90;;;;;;6160579;23;20059;-78
2023/04/29 01:51:55;;;;;;;37.63;28.48;;;9.90;99.90;;;;;;6160532;23;20068;-77
2023/04/29 01:54:24;;;;;;;36.13;29.50;;;10.00;99.90;;;;;;6185305;23;20017;-77
2023/04/29 01:56:50;;;;;;;37.05;27.48;;;10.00;99.90;;;;;;6185259;23;20438;-77
2023/04/29 01:59:16;;;;;;;36.22;26.98;;;9.90;99.90;;;;;;6184684;23;20442;-77
2023/04/29 02:01:42;;;;;;;34.75;26.98;;;10.00;99.90;;;;;;6186993;23;20088;-77
2023/04/29 02:04:08;;;;;;;33.80;25.85;;;10.00;99.90;;;;;;6187207;23;20045;-78
2023/04/29 02:06:33;;;;;;;34.25;26.23;;;9.90;99.90;;;;;;6160287;23;20035;-78
2023/04/29 02:08:59;;;;;;;35.30;26.90;;;10.00;99.90;;;;;;6160129;23;20013;-78
2023/04/29 02:11:25;;;;;;;35.78;26.17;;;9.90;99.90;;;;;;6185078;23;20046;-77
2023/04/29 02:13:50;;;;;;;33.50;24.90;;;10.00;99.90;;;;;;6185491;23;20438;-78
2023/04/29 02:16:16;;;;;;;36.67;25.30;;;9.90;99.90;;;;;;6185110;23;20017;-78
2023/04/29 02:18:42;;;;;;;34.55;25.95;;;10.00;99.90;;;;;;6185083;23;20009;-78
2023/04/29 02:21:07;;;;;;;36.22;25.23;;;9.90;99.90;;;;;;6160237;23;20039;-77
2023/04/29 02:23:36;;;;;;;34.38;25.50;;;10.00;99.90;;;;;;6185248;23;20369;-77
2023/04/29 02:26:06;;;;;;;29.25;23.95;;;9.90;99.90;;;;;;6186836;23;20013;-77
2023/04/29 02:28:34;;;;;;;34.10;24.55;;;10.00;99.90;;;;;;6185506;23;20017;-78
2023/04/29 02:31:00;;;;;;;34.20;25.23;;;9.90;99.90;;;;;;6185026;23;20009;-77
2023/04/29 02:33:26;;;;;;;34.80;26.58;;;9.90;99.90;;;;;;6160083;23;20009;-77
2023/04/29 02:35:51;;;;;;;33.88;25.58;;;9.90;99.90;;;;;;6159933;23;20438;-78
2023/04/29 02:38:17;;;;;;;40.35;25.77;;;9.90;99.90;;;;;;6160009;23;20080;-78
2023/04/29 02:40:44;;;;;;;32.65;25.55;;;9.80;99.90;;;;;;6186278;23;20025;-78
2023/04/29 02:43:10;;;;;;;33.45;24.85;;;9.90;99.90;;;;;;6160616;23;20095;-78
2023/04/29 02:45:36;;;;;;;34.90;24.45;;;9.80;99.90;;;;;;6186640;23;20020;-78
2023/04/29 02:48:01;;;;;;;31.45;25.13;;;9.90;99.90;;;;;;6185167;23;20016;-77
2023/04/29 02:50:27;;;;;;;31.58;24.58;;;9.80;99.90;;;;;;6185060;23;20009;-78
2023/04/29 02:52:53;;;;;;;29.27;23.88;;;9.90;99.90;;;;;;6184598;23;20009;-78
2023/04/29 02:55:19;;;;;;;34.40;24.98;;;9.80;99.90;;;;;;6186659;23;20013;-78
2023/04/29 02:57:44;;;;;;;34.42;25.23;;;9.80;99.90;;;;;;6184620;23;20013;-78
2023/04/29 03:00:10;;;;;;;33.55;24.23;;;9.80;99.90;;;;;;6159823;23;20442;-78
2023/04/29 03:02:36;;;;;;;34.88;24.90;;;9.80;99.90;;;;;;6186473;23;20009;-78
2023/04/29 03:05:03;;;;;;;36.45;25.05;;;9.80;99.90;;;;;;6159901;23;20044;-78
2023/04/29 03:07:29;;;;;;;31.73;24.95;;;9.70;99.90;;;;;;6184625;23;20024;-78
2023/04/29 03:09:55;;;;;;;34.58;24.63;;;9.70;99.90;;;;;;6186453;23;20005;-78
2023/04/29 03:12:21;;;;;;;34.25;24.85;;;9.70;99.90;;;;;;6186519;23;20361;-78
2023/04/29 03:14:46;;;;;;;38.60;25.80;;;9.70;99.90;;;;;;6184467;23;20017;-78
2023/04/29 03:17:13;;;;;;;31.90;24.33;;;9.70;99.90;;;;;;6183398;23;20021;-78
2023/04/29 03:19:38;;;;;;;33.65;24.42;;;9.70;99.90;;;;;;6159668;23;20438;-77
2023/04/29 03:22:05;;;;;;;32.25;23.75;;;9.70;99.90;;;;;;6186179;23;20018;-78
2023/04/29 03:24:31;;;;;;;31.58;22.58;;;9.70;99.90;;;;;;6135063;23;20083;-78
2023/04/29 03:26:58;;;;;;;30.60;22.23;;;9.70;99.90;;;;;;6159836;23;20037;-78
2023/04/29 03:29:25;;;;;;;35.80;24.02;;;9.60;99.90;;;;;;6135172;23;20013;-78
2023/04/29 03:31:51;;;;;;;32.13;23.40;;;9.60;99.90;;;;;;6159440;23;20024;-78
2023/04/29 03:34:16;;;;;;;32.92;22.25;;;9.50;99.90;;;;;;6159549;23;20013;-78
2023/04/29 03:36:42;;;;;;;31.88;22.10;;;9.50;99.90;;;;;;6135037;23;20024;-78
2023/04/29 03:39:08;;;;;;;33.78;22.63;;;9.50;99.90;;;;;;6135156;23;20020;-78
2023/04/29 03:41:33;;;;;;;35.80;23.50;;;9.50;99.90;;;;;;6134558;23;20020;-78
2023/04/29 03:43:59;;;;;;;31.58;22.13;;;9.50;99.90;;;;;;6186291;23;20011;-78
2023/04/29 03:46:28;;;;;;;31.38;22.88;;;9.40;99.90;;;;;;6159925;23;20047;-78
2023/04/29 03:48:54;;;;;;;34.13;22.75;;;9.40;99.90;;;;;;6134797;23;20013;-78
2023/04/29 03:51:22;;;;;;;30.15;21.20;;;9.30;99.90;;;;;;6185831;23;20011;-77
2023/04/29 03:53:47;;;;;;;28.85;21.67;;;9.40;99.90;;;;;;6186214;23;20059;-77
2023/04/29 03:56:13;;;;;;;31.50;20.88;;;9.30;99.90;;;;;;6134770;23;20441;-77
2023/04/29 03:58:39;;;;;;;30.70;21.40;;;9.30;99.90;;;;;;6159589;23;20005;-77
2023/04/29 04:01:04;;;;;;;27.30;19.23;;;9.30;99.90;;;;;;6134917;23;20055;-78
2023/04/29 04:03:31;;;;;;;29.08;19.48;;;9.40;99.90;;;;;;6159475;23;20005;-77
2023/04/29 04:05:57;;;;;;;32.55;19.75;;;9.30;99.90;;;;;;6134956;23;20045;-77
2023/04/29 04:08:23;;;;;;;30.70;19.77;;;9.40;99.90;;;;;;6134834;23;20048;-78
2023/04/29 04:10:48;;;;;;;26.88;19.17;;;9.30;99.90;;;;;;6135030;23;20513;-77
2023/04/29 04:13:14;;;;;;;26.77;19.08;;;9.30;99.90;;;;;;6134925;23;20049;-78
2023/04/29 04:15:41;;;;;;;28.63;19.75;;;9.40;99.90;;;;;;6185980;23;20088;-78
2023/04/29 04:18:07;;;;;;;31.38;19.75;;;9.30;99.90;;;;;;6186027;23;20388;-77
2023/04/29 04:20:35;;;;;;;28.65;19.80;;;9.30;99.90;;;;;;6185360;23;20013;-78
2023/04/29 04:23:01;;;;;;;25.45;19.45;;;9.40;99.90;;;;;;6161471;23;20088;-78
2023/04/29 04:25:27;;;;;;;28.42;19.02;;;9.30;99.90;;;;;;6187801;23;20020;-78
2023/04/29 04:27:53;;;;;;;31.80;21.38;;;9.20;99.90;;;;;;6161555;23;20013;-77
2023/04/29 04:30:19;;;;;;;27.50;18.85;;;9.30;99.90;;;;;;6161719;23;20015;-77
2023/04/29 04:32:45;;;;;;;26.95;19.50;;;9.20;99.90;;;;;;6136566;23;20048;-77
2023/04/29 04:35:11;;;;;;;24.77;18.67;;;9.30;99.90;;;;;;6187858;23;20009;-77
2023/04/29 04:37:37;;;;;;;29.88;19.42;;;9.20;99.90;;;;;;6161129;23;20044;-77
2023/04/29 04:40:03;;;;;;;30.15;19.85;;;9.40;99.90;;;;;;6136533;23;20013;-77
2023/04/29 04:42:29;;;;;;;25.50;18.48;;;9.40;99.90;;;;;;6161416;23;20017;-77
2023/04/29 04:44:56;;;;;;;27.20;19.40;;;9.30;99.90;;;;;;6161138;23;20162;-77
2023/04/29 04:47:22;;;;;;;24.48;17.63;;;9.40;99.90;;;;;;6161089;23;20020;-77
2023/04/29 04:49:48;;;;;;;25.40;16.67;;;9.40;99.90;;;;;;6136601;23;20009;-77
2023/04/29 04:52:14;;;;;;;26.88;14.85;;;9.40;99.90;;;;;;6161006;23;20085;-77
2023/04/29 04:54:40;;;;;;;22.88;16.33;;;9.40;99.90;;;;;;6136321;23;20020;-77
2023/04/29 04:57:06;;;;;;;20.83;15.45;;;9.40;99.90;;;;;;6187677;23;20040;-77
2023/04/29 04:59:32;;;;;;;22.40;16.00;;;9.40;99.90;;;;;;6187772;23;20021;-77
2023/04/29 05:01:58;;;;;;;24.35;14.90;;;9.40;99.90;;;;;;6136123;23;20139;-77
2023/04/29 05:04:23;;;;;;;20.30;13.77;;;9.40;99.90;;;;;;6187593;23;20044;-77
2023/04/29 05:06:49;;;;;;;26.40;15.60;;;9.50;99.90;;;;;;6136259;23;20441;-77
2023/04/29 05:09:15;;;;;;;21.63;14.38;;;9.40;99.90;;;;;;6187680;23;20016;-77
2023/04/29 05:11:41;;;;;;;24.25;16.33;;;9.50;99.90;;;;;;6160907;23;20374;-77
2023/04/29 05:14:06;;;;;;;19.30;14.18;;;9.40;99.90;;;;;;6160803;23;20040;-77
2023/04/29 05:16:32;;;;;;;21.42;13.43;;;9.50;99.90;;;;;;6161332;23;20010;-77
2023/04/29 05:18:58;;;;;;;22.08;14.30;;;9.40;99.90;;;;;;6160580;23;20021;-77
2023/04/29 05:21:23;;;;;;;18.65;13.98;;;9.60;99.90;;;;;;6153936;23;20025;-77
2023/04/29 05:23:49;;;;;;;19.90;14.13;;;9.60;99.90;;;;;;6185976;23;20438;-77
2023/04/29 05:26:14;;;;;;;22.02;13.80;;;9.50;99.90;;;;;;6185570;23;20009;-77
2023/04/29 05:28:40;;;;;;;22.10;14.73;;;9.60;99.90;;;;;;6188116;23;20009;-77
2023/04/29 05:31:06;;;;;;;22.13;14.35;;;9.60;99.90;;;;;;6160730;23;20013;-78
2023/04/29 05:33:31;;;;;;;21.30;14.43;;;9.50;99.90;;;;;;6185888;23;20020;-77
2023/04/29 05:35:57;;;;;;;22.33;14.35;;;9.60;99.90;;;;;;6161062;23;20013;-78
2023/04/29 05:38:27;;;;;;;21.40;14.02;;;9.60;99.90;;;;;;6187424;23;20029;-78
2023/04/29 05:40:56;;;;;;;23.52;14.35;;;9.50;99.90;;;;;;6185704;23;20063;-78
2023/04/29 05:43:22;;;;;;;23.35;16.00;;;9.70;99.90;;;;;;6185611;23;20013;-77
2023/04/29 05:45:48;;;;;;;20.58;15.02;;;9.70;99.90;;;;;;6160629;23;20009;-78
2023/04/29 05:48:14;;;;;;;23.85;15.23;;;9.60;99.90;;;;;;6160736;23;20084;-77
2023/04/29 05:50:39;;;;;;;22.13;15.27;;;9.80;99.90;;;;;;6185402;23;20009;-77
2023/04/29 05:53:05;;;;;;;19.15;14.85;;;9.80;99.90;;;;;;6187268;23;20140;-77
2023/04/29 05:55:31;;;;;;;21.60;15.82;;;9.80;99.90;;;;;;6186783;23;20080;-77
2023/04/29 05:57:56;;;;;;;24.48;16.73;;;9.70;99.90;;;;;;6185260;23;20023;-77
2023/04/29 06:00:22;;;;;;;26.38;17.08;;;9.80;99.90;;;;;;6185323;23;20013;-77
2023/04/29 06:02:48;;;;;;;25.33;17.00;;;9.70;99.90;;;;;;6185075;23;20390;-77
2023/04/29 06:05:14;;;;;;;26.25;17.23;;;9.80;99.90;;;;;;6185257;23;20013;-77
2023/04/29 06:07:41;;;;;;;25.58;17.38;;;9.80;99.90;;;;;;6160357;23;20064;-77
2023/04/29 06:10:07;;;;;;;26.20;17.75;;;9.80;99.90;;;;;;6160176;23;20009;-77
2023/04/29 06:12:33;;;;;;;27.80;17.48;;;9.80;99.90;;;;;;6160245;23;20017;-77
2023/04/29 06:14:58;;;;;;;24.30;17.95;;;9.90;99.90;;;;;;6185209;23;20013;-77
2023/04/29 06:17:24;;;;;;;23.38;17.00;;;10.00;99.90;;;;;;6160354;23;20450;-77
2023/04/29 06:19:50;;;;;;;24.33;17.55;;;10.00;99.90;;;;;;6186461;23;20291;-77
2023/04/29 06:22:16;;;;;;;23.15;17.08;;;9.90;99.90;;;;;;6160790;23;20021;-77
2023/04/29 06:24:42;;;;;;;22.70;16.95;;;10.00;99.90;;;;;;6160726;23;20058;-77
2023/04/29 06:27:07;;;;;;;25.85;16.45;;;10.10;99.90;;;;;;6135627;23;20024;-77
2023/04/29 06:29:33;;;;;;;24.60;16.85;;;10.10;99.90;;;;;;6160238;23;20005;-77
2023/04/29 06:31:59;;;;;;;21.00;17.02;;;10.20;99.90;;;;;;6159998;23;20044;-73
2023/04/29 06:34:25;;;;;;;20.63;16.05;;;10.10;99.90;;;;;;6186804;23;20012;-76
2023/04/29 06:36:50;;;;;;;23.30;16.90;;;10.20;99.90;;;;;;6160294;23;20017;-76
2023/04/29 06:39:16;;;;;;;22.13;16.05;;;10.30;99.90;;;;;;6160215;23;20410;-76
2023/04/29 06:41:41;;;;;;;20.55;14.90;;;10.30;99.90;;;;;;6159952;23;20016;-76
2023/04/29 06:44:07;;;;;;;21.70;14.70;;;10.30;99.90;;;;;;6159885;23;20017;-76
2023/04/29 06:46:33;;;;;;;19.75;15.00;;;10.40;99.90;;;;;;6186291;23;20376;-73
2023/04/29 06:48:58;;;;;;;19.73;14.65;;;10.40;99.90;;;;;;6160141;23;20044;-73
2023/04/29 06:51:24;;;;;;;18.33;14.25;;;10.50;99.90;;;;;;6159936;23;20335;-72
2023/04/29 06:53:50;;;;;;;19.45;14.55;;;10.50;99.90;;;;;;6186579;23;20017;-73
2023/04/29 06:56:15;;;;;;;21.20;14.93;;;10.60;99.90;;;;;;6186194;23;20330;-73
2023/04/29 06:58:41;;;;;;;19.35;14.32;;;10.60;99.90;;;;;;6159807;23;20020;-73
2023/04/29 07:01:08;;;;;;;18.95;14.23;;;10.60;99.90;;;;;;6160333;23;20023;-73
2023/04/29 07:03:33;;;;;;;20.88;14.57;;;10.80;99.90;;;;;;6160281;23;20068;-73
2023/04/29 07:05:59;;;;;;;19.10;13.43;;;10.70;99.90;;;;;;6159959;23;20013;-73
2023/04/29 07:08:25;;;;;;;18.33;14.32;;;10.70;99.90;;;;;;6187139;23;20021;-73
2023/04/29 07:10:56;;;;;;;21.42;14.55;;;10.80;99.90;;;;;;6186561;23;20009;-73
2023/04/29 07:13:22;;;;;;;15.77;12.95;;;10.80;99.90;;;;;;6186495;23;20024;-74
2023/04/29 07:15:48;;;;;;;16.60;12.98;;;10.80;99.90;;;;;;6159728;23;20091;-74
2023/04/29 07:18:13;;;;;;;16.90;13.23;;;10.80;99.90;;;;;;6186396;23;20044;-73
2023/04/29 07:20:39;;;;;;;16.10;12.38;;;10.90;99.90;;;;;;6144204;23;20465;-74
2023/04/29 07:23:04;;;;;;;17.17;13.38;;;10.90;99.90;;;;;;6184726;23;20017;-74
2023/04/29 07:25:30;;;;;;;16.45;12.57;;;10.90;99.90;;;;;;6184458;23;20009;-75
2023/04/29 07:27:56;;;;;;;16.50;13.30;;;10.90;99.90;;;;;;6186202;23;20391;-75
2023/04/29 07:30:22;;;;;;;18.20;12.10;;;10.90;99.90;;;;;;6186331;23;20005;-74
2023/04/29 07:32:48;;;;;;;16.60;12.02;;;11.00;99.90;;;;;;6184373;23;20076;-78
2023/04/29 07:35:13;;;;;;;16.38;11.70;;;11.10;99.90;;;;;;6184850;23;20013;-75
2023/04/29 07:37:40;;;;;;;13.65;11.20;;;11.10;99.90;;;;;;6184870;23;20009;-76
2023/04/29 07:40:06;;;;;;;17.95;12.50;;;11.20;99.90;;;;;;6159588;23;20016;-74
2023/04/29 07:42:32;;;;;;;16.38;11.68;;;11.20;99.90;;;;;;6184354;23;20087;-73
2023/04/29 07:44:57;;;;;;;16.42;12.05;;;11.20;99.90;;;;;;6186234;23;20476;-73
2023/04/29 07:47:23;;;;;;;14.48;11.63;;;11.20;99.90;;;;;;6184301;23;20126;-73
2023/04/29 07:49:49;;;;;;;16.25;12.07;;;11.40;99.90;;;;;;6184296;23;20009;-74
2023/04/29 07:52:14;;;;;;;15.43;12.60;;;11.40;99.90;;;;;;6184701;23;20017;-74
2023/04/29 07:54:40;;;;;;;14.32;12.05;;;11.40;99.90;;;;;;6184423;23;20013;-72
2023/04/29 07:57:05;;;;;;;14.15;11.57;;;11.40;99.90;;;;;;6159116;23;20048;-71
2023/04/29 07:59:31;;;;;;;14.50;11.00;;;11.50;99.90;;;;;;6186148;23;20017;-74
2023/04/29 08:01:57;;;;;;;15.50;11.50;;;11.50;99.90;;;;;;6184171;23;20017;-77
2023/04/29 08:04:23;;;;;;;15.00;11.70;;;11.60;99.90;;;;;;6185758;23;20343;-74
2023/04/29 08:06:49;;;;;;;13.55;9.52;;;11.60;99.90;;;;;;6185813;23;20331;-75
2023/04/29 08:09:15;;;;;;;13.48;9.90;;;11.60;99.90;;;;;;6184691;23;20017;-74
2023/04/29 08:11:41;;;;;;;15.50;10.40;;;11.70;99.90;;;;;;6184114;23;20460;-72
2023/04/29 08:14:07;;;;;;;14.80;11.05;;;11.60;99.90;;;;;;6184105;23;20017;-76
2023/04/29 08:16:33;;;;;;;14.48;10.95;;;11.70;99.90;;;;;;6185716;23;20016;-78
2023/04/29 08:18:59;;;;;;;14.18;10.93;;;11.60;99.90;;;;;;6184086;23;20017;-73
2023/04/29 08:21:24;;;;;;;14.25;10.60;;;11.70;99.90;;;;;;6185465;23;20013;-75
2023/04/29 08:23:50;;;;;;;14.75;11.05;;;11.70;99.90;;;;;;6134596;23;20451;-75
2023/04/29 08:26:16;;;;;;;14.57;9.88;;;11.80;99.90;;;;;;6159166;23;20017;-75
2023/04/29 08:28:42;;;;;;;12.52;9.50;;;11.80;99.90;;;;;;6134620;23;20049;-75
2023/04/29 08:31:15;;;;;;;11.48;9.50;;;11.90;99.90;;;;;;6159129;23;20005;-75
2023/04/29 08:33:41;;;;;;;14.65;9.73;;;11.90;99.90;;;;;;6159290;23;20016;-75
2023/04/29 08:36:07;;;;;;;13.43;10.98;;;12.00;99.90;;;;;;6185887;23;20338;-75
2023/04/29 08:38:33;;;;;;;13.55;9.95;;;12.10;99.90;;;;;;6159230;23;20021;-75
2023/04/29 08:41:00;;;;;;;13.93;10.57;;;12.20;99.90;;;;;;6159658;23;20009;-75
2023/04/29 08:43:26;;;;;;;11.02;9.80;;;12.20;99.90;;;;;;6185965;23;20040;-76
2023/04/29 08:45:52;;;;;;;12.98;9.32;;;12.30;99.90;;;;;;6185946;23;20009;-75
2023/04/29 08:48:18;;;;;;;11.77;9.15;;;12.30;99.90;;;;;;6159198;23;20013;-76
2023/04/29 08:50:44;;;;;;;11.40;9.55;;;12.40;99.90;;;;;;6159156;23;20040;-75
2023/04/29 08:53:14;;;;;;;11.52;9.50;;;12.40;99.90;;;;;;6134498;23;20488;-75
2023/04/29 08:55:46;;;;;;;14.63;8.77;;;12.40;99.90;;;;;;6185871;23;20092;-76
2023/04/29 08:58:13;;;;;;;13.40;10.05;;;12.50;99.90;;;;;;6134540;23;20009;-75
2023/04/29 09:00:40;;;;;;;12.68;9.15;;;12.60;99.90;;;;;;6185873;23;20084;-76
2023/04/29 09:03:25;;;;;;;10.57;9.00;;;12.70;99.90;;;;;;6159260;23;20013;-76
2023/04/29 09:05:58;;;;;;;9.52;8.27;;;12.70;99.90;;;;;;6159015;23;20016;-75
2023/04/29 09:08:25;;;;;;;10.25;8.82;;;12.90;99.90;;;;;;6135487;23;20025;-75
2023/04/29 09:10:51;;;;;;;12.65;8.55;;;13.00;99.90;;;;;;6187639;23;20011;-75
2023/04/29 09:13:27;;;;;;;12.48;8.70;;;13.00;99.90;;;;;;6136472;23;20023;-76
2023/04/29 09:15:53;;;;;;;9.65;8.65;;;13.00;99.90;;;;;;6160950;23;20092;-76
2023/04/29 09:18:45;;;;;;;11.70;9.70;;;13.10;99.90;;;;;;6160839;23;20056;-75
2023/04/29 09:21:21;;;;;;;11.75;9.35;;;13.20;99.90;;;;;;6187243;23;20461;-76
2023/04/29 09:23:52;;;;;;;13.57;10.23;;;13.40;99.90;;;;;;6187060;23;20319;-76
2023/04/29 09:26:19;;;;;;;11.35;8.80;;;13.60;99.90;;;;;;6160958;23;20009;-76
2023/04/29 09:28:46;;;;;;;10.48;8.55;;;13.70;99.90;;;;;;6161163;23;20333;-76
2023/04/29 09:31:12;;;;;;;13.18;8.90;;;13.70;99.90;;;;;;6187501;23;20024;-76
2023/04/29 09:33:56;;;;;;;10.48;8.35;;;13.80;99.90;;;;;;6160831;23;20044;-76
2023/04/29 09:36:40;;;;;;;11.13;8.30;;;13.90;99.90;;;;;;6136214;23;20013;-76
2023/04/29 09:39:11;;;;;;;11.85;8.40;;;14.10;99.90;;;;;;6136132;23;20012;-76
2023/04/29 09:41:52;;;;;;;9.88;8.00;;;14.20;99.90;;;;;;6187169;23;20076;-76
2023/04/29 09:44:26;;;;;;;10.98;8.77;;;14.30;99.90;;;;;;6135562;23;20017;-76
2023/04/29 09:46:56;;;;;;;12.85;8.90;;;14.40;99.90;;;;;;6161465;23;20056;-76
2023/04/29 09:49:26;;;;;;;9.52;8.40;;;14.50;99.90;;;;;;6187233;23;20067;-76
2023/04/29 09:52:00;;;;;;;10.85;8.48;;;14.60;99.90;;;;;;6160490;23;20013;-75
2023/04/29 09:54:37;;;;;;;9.98;8.38;;;14.60;99.90;;;;;;6160793;23;20024;-75
2023/04/29 09:57:06;;;;;;;9.30;8.27;;;14.70;99.90;;;;;;6187178;23;20013;-76
2023/04/29 09:59:37;;;;;;;9.80;8.15;;;14.70;99.90;;;;;;6187210;23;20015;-76
2023/04/29 10:02:22;;;;;;;10.13;7.78;;;14.50;99.90;;;;;;6135825;23;20473;-75
2023/04/29 10:04:55;;;;;;;11.10;8.25;;;14.50;99.90;;;;;;6187184;23;20009;-76
2023/04/29 10:07:22;;;;;;;9.55;8.55;;;14.40;99.90;;;;;;6160474;23;20320;-75
2023/04/29 10:09:48;;;;;;;9.77;7.78;;;14.40;99.90;;;;;;6160284;23;20005;-75
2023/04/29 10:12:19;;;;;;;10.15;7.55;;;14.40;99.90;;;;;;6186698;23;20055;-75
2023/04/29 10:15:01;;;;;;;10.38;8.82;;;14.60;99.90;;;;;;6135782;23;20039;-75
2023/04/29 10:17:44;;;;;;;10.18;8.00;;;14.80;99.90;;;;;;6187015;23;20036;-75
2023/04/29 10:20:15;;;;;;;10.45;7.70;;;14.80;99.90;;;;;;6163269;23;20059;-76
2023/04/29 10:22:56;;;;;;;10.98;7.63;;;14.80;99.90;;;;;;6185523;23;20143;-75
2023/04/29 10:25:23;;;;;;;9.38;8.00;;;14.90;99.90;;;;;;6187194;23;20338;-76
2023/04/29 10:27:53;;;;;;;11.90;7.53;;;14.80;99.90;;;;;;6185622;23;20005;-76
2023/04/29 10:30:20;;;;;;;12.65;7.60;;;14.60;99.90;;;;;;6187010;23;20036;-76
2023/04/29 10:32:48;;;;;;;12.55;8.00;;;14.40;99.90;;;;;;6187046;23;20021;-76
2023/04/29 10:35:15;;;;;;;12.23;8.25;;;14.30;99.90;;;;;;6185105;23;20048;-76
2023/04/29 10:37:43;;;;;;;11.13;8.05;;;14.40;99.90;;;;;;6184954;23;20024;-76
2023/04/29 10:40:16;;;;;;;10.43;7.15;;;14.30;99.90;;;;;;6184960;23;20009;-76
2023/04/29 10:42:46;;;;;;;10.43;7.20;;;14.50;99.90;;;;;;6186836;23;20013;-76
2023/04/29 10:45:34;;;;;;;12.52;7.82;;;14.50;99.90;;;;;;6160194;23;20334;-76
2023/04/29 10:48:07;;;;;;;9.13;6.82;;;14.50;99.90;;;;;;6184977;23;20017;-76
2023/04/29 10:50:38;;;;;;;10.48;6.57;;;14.60;99.90;;;;;;6184882;23;20460;-75
2023/04/29 10:53:04;;;;;;;11.27;7.35;;;14.70;99.90;;;;;;6160113;23;20049;-75
2023/04/29 10:55:34;;;;;;;10.98;7.30;;;14.80;99.90;;;;;;6184810;23;20438;-75
2023/04/29 10:58:02;;;;;;;10.82;7.53;;;14.80;99.90;;;;;;6185157;23;20013;-75
2023/04/29 11:00:29;;;;;;;10.48;7.43;;;14.80;99.90;;;;;;6184721;23;20458;-75
2023/04/29 11:03:04;;;;;;;8.65;6.57;;;14.90;99.90;;;;;;6186513;23;20048;-75
2023/04/29 11:05:36;;;;;;;9.68;6.93;;;14.90;99.90;;;;;;6159802;23;20048;-76
2023/04/29 11:08:23;;;;;;;9.43;6.70;;;15.00;99.90;;;;;;6184722;23;20009;-75
2023/04/29 11:11:00;;;;;;;10.38;6.50;;;15.00;99.90;;;;;;6184557;23;20315;-76
2023/04/29 11:13:28;;;;;;;8.27;6.63;;;14.90;99.90;;;;;;6159874;23;20052;-75
2023/04/29 11:16:09;;;;;;;15.02;7.38;;;14.90;99.90;;;;;;6159888;23;20017;-76
2023/04/29 11:18:56;;;;;;;9.30;6.22;;;15.10;99.90;;;;;;6161000;23;20017;-76
2023/04/29 11:21:22;;;;;;;7.75;5.93;;;15.10;99.90;;;;;;6184134;23;20093;-75
2023/04/29 11:23:50;;;;;;;8.23;5.70;;;15.20;99.90;;;;;;6184505;23;20100;-76
2023/04/29 11:26:19;;;;;;;9.63;6.10;;;15.40;99.90;;;;;;6159736;23;20091;-76
2023/04/29 11:28:45;;;;;;;7.38;6.18;;;15.50;99.90;;;;;;6184447;23;20009;-75
2023/04/29 11:31:10;;;;;;;8.40;6.10;;;15.50;99.90;;;;;;6185315;23;20009;-77
2023/04/29 11:33:36;;;;;;;7.53;5.70;;;15.60;99.90;;;;;;6184791;23;20044;-75
2023/04/29 11:36:02;;;;;;;8.05;6.13;;;15.60;99.90;;;;;;6184367;23;20011;-76
2023/04/29 11:38:29;;;;;;;7.22;6.20;;;15.60;99.90;;;;;;6159493;23;20013;-76
2023/04/29 11:40:56;;;;;;;9.40;6.60;;;15.70;99.90;;;;;;6184273;23;20005;-77
2023/04/29 11:43:23;;;;;;;9.23;6.13;;;15.70;99.90;;;;;;6186212;23;20413;-76
2023/04/29 11:45:52;;;;;;;7.97;6.03;;;15.40;99.90;;;;;;6184695;23;20020;-76
2023/04/29 11:48:22;;;;;;;6.38;5.22;;;15.40;99.90;;;;;;6184259;23;20044;-76
2023/04/29 11:50:54;;;;;;;7.43;5.53;;;15.40;99.90;;;;;;6184617;23;20013;-75
2023/04/29 11:53:21;;;;;;;6.20;5.50;;;15.60;99.90;;;;;;6184051;23;20023;-77
2023/04/29 11:55:47;;;;;;;7.13;5.57;;;15.70;99.90;;;;;;6184266;23;20009;-75
2023/04/29 11:58:16;;;;;;;6.32;5.35;;;15.80;99.90;;;;;;6186061;23;20025;-76
2023/04/29 12:00:43;;;;;;;6.70;4.95;;;15.80;99.90;;;;;;6184678;23;20015;-76
2023/04/29 12:03:20;;;;;;;7.40;6.03;;;15.80;99.90;;;;;;6185986;23;20013;-76
2023/04/29 12:05:53;;;;;;;8.40;5.78;;;15.80;99.90;;;;;;6186091;23;20021;-76
2023/04/29 12:08:23;;;;;;;6.35;5.72;;;15.70;99.90;;;;;;6159362;23;20518;-76
2023/04/29 12:10:50;;;;;;;8.90;5.47;;;15.80;99.90;;;;;;6159418;23;20088;-76
2023/04/29 12:13:17;;;;;;;8.90;5.53;;;15.90;99.90;;;;;;6184115;23;20024;-76
2023/04/29 12:15:45;;;;;;;5.30;4.80;;;15.90;99.90;;;;;;6185704;23;20013;-79
2023/04/29 12:18:11;;;;;;;6.00;4.93;;;16.00;99.90;;;;;;6184617;23;20008;-76
2023/04/29 12:20:38;;;;;;;8.38;4.75;;;16.00;98.60;;;;;;6183993;23;20381;-76
2023/04/29 12:23:14;;;;;;;5.35;4.00;;;15.90;98.60;;;;;;6184016;23;20338;-76
2023/04/29 12:25:41;;;;;;;5.43;4.13;;;16.00;99.90;;;;;;6186585;23;20017;-76
2023/04/29 12:28:13;;;;;;;5.65;3.75;;;16.10;99.90;;;;;;6159337;23;20123;-76
2023/04/29 12:30:39;;;;;;;5.70;3.58;;;16.20;98.90;;;;;;6159257;23;20517;-76
2023/04/29 12:33:08;;;;;;;4.93;3.10;;;16.30;98.30;;;;;;6184457;23;20149;-76
2023/04/29 12:35:35;;;;;;;5.35;2.80;;;16.40;97.60;;;;;;6183982;23;20013;-77
2023/04/29 12:38:01;;;;;;;4.38;2.85;;;16.50;96.60;;;;;;6159540;23;20013;-77
2023/04/29 12:40:27;;;;;;;3.40;2.45;;;16.60;96.90;;;;;;6184477;23;20028;-76